sensor_id;sensor_type;location;lat;lon;timestamp;P1;durP1;ratioP1;P2;durP2;ratioP2
44110;SDS011;29774;52.664;5.074;2023-12-14T00:01:32;8.18;;;4.22;;
44110;SDS011;29774;52.664;5.074;2023-12-14T00:03:58;8.95;;;5.00;;
44110;SDS011;29774;52.664;5.074;2023-12-14T00:06:24;8.93;;;4.93;;
44110;SDS011;29774;52.664;5.074;2023-12-14T00:08:49;7.43;;;4.18;;
44110;SDS011;29774;52.664;5.074;2023-12-14T00:11:15;7.32;;;4.50;;
44110;SDS011;29774;52.664;5.074;2023-12-14T00:13:41;10.30;;;4.80;;
44110;SDS011;29774;52.664;5.074;2023-12-14T00:16:07;7.47;;;4.90;;
44110;SDS011;29774;52.664;5.074;2023-12-14T00:18:33;6.97;;;4.38;;
44110;SDS011;29774;52.664;5.074;2023-12-14T00:20:59;6.68;;;4.65;;
44110;SDS011;29774;52.664;5.074;2023-12-14T00:23:25;7.35;;;5.20;;
44110;SDS011;29774;52.664;5.074;2023-12-14T00:25:51;7.82;;;4.72;;
44110;SDS011;29774;52.664;5.074;2023-12-14T00:28:17;7.05;;;4.72;;
44110;SDS011;29774;52.664;5.074;2023-12-14T00:30:42;8.07;;;4.82;;
44110;SDS011;29774;52.664;5.074;2023-12-14T00:33:08;7.43;;;5.35;;
44110;SDS011;29774;52.664;5.074;2023-12-14T00:35:33;7.72;;;4.90;;
44110;SDS011;29774;52.664;5.074;2023-12-14T00:37:59;6.85;;;4.93;;
44110;SDS011;29774;52.664;5.074;2023-12-14T00:40:25;6.65;;;4.75;;
44110;SDS011;29774;52.664;5.074;2023-12-14T00:42:50;6.82;;;5.07;;
44110;SDS011;29774;52.664;5.074;2023-12-14T00:45:16;5.40;;;4.25;;
44110;SDS011;29774;52.664;5.074;2023-12-14T00:47:41;5.72;;;4.78;;
44110;SDS011;29774;52.664;5.074;2023-12-14T00:50:07;8.48;;;5.07;;
44110;SDS011;29774;52.664;5.074;2023-12-14T00:52:33;8.27;;;4.47;;
44110;SDS011;29774;52.664;5.074;2023-12-14T00:54:59;11.23;;;4.70;;
44110;SDS011;29774;52.664;5.074;2023-12-14T00:57:24;7.82;;;4.35;;
44110;SDS011;29774;52.664;5.074;2023-12-14T00:59:50;8.70;;;4.30;;
44110;SDS011;29774;52.664;5.074;2023-12-14T01:02:15;10.90;;;4.95;;
44110;SDS011;29774;52.664;5.074;2023-12-14T01:04:41;8.02;;;4.38;;
44110;SDS011;29774;52.664;5.074;2023-12-14T01:07:07;10.98;;;4.38;;
44110;SDS011;29774;52.664;5.074;2023-12-14T01:09:33;7.38;;;4.20;;
44110;SDS011;29774;52.664;5.074;2023-12-14T01:11:58;8.57;;;4.43;;
44110;SDS011;29774;52.664;5.074;2023-12-14T01:14:24;5.10;;;3.78;;
44110;SDS011;29774;52.664;5.074;2023-12-14T01:16:50;10.18;;;4.38;;
44110;SDS011;29774;52.664;5.074;2023-12-14T01:19:15;9.73;;;4.43;;
44110;SDS011;29774;52.664;5.074;2023-12-14T01:21:41;5.38;;;3.80;;
44110;SDS011;29774;52.664;5.074;2023-12-14T01:24:06;6.88;;;3.65;;
44110;SDS011;29774;52.664;5.074;2023-12-14T01:26:32;7.72;;;3.78;;
44110;SDS011;29774;52.664;5.074;2023-12-14T01:28:57;7.40;;;3.78;;
44110;SDS011;29774;52.664;5.074;2023-12-14T01:31:26;8.43;;;3.28;;
44110;SDS011;29774;52.664;5.074;2023-12-14T01:33:51;9.13;;;3.60;;
44110;SDS011;29774;52.664;5.074;2023-12-14T01:36:21;6.40;;;3.45;;
44110;SDS011;29774;52.664;5.074;2023-12-14T01:38:47;8.63;;;3.92;;
44110;SDS011;29774;52.664;5.074;2023-12-14T01:41:13;4.88;;;3.15;;
44110;SDS011;29774;52.664;5.074;2023-12-14T01:43:38;6.25;;;3.58;;
44110;SDS011;29774;52.664;5.074;2023-12-14T01:46:04;4.85;;;3.22;;
44110;SDS011;29774;52.664;5.074;2023-12-14T01:48:30;9.93;;;3.75;;
44110;SDS011;29774;52.664;5.074;2023-12-14T01:50:55;5.78;;;3.20;;
44110;SDS011;29774;52.664;5.074;2023-12-14T01:53:21;6.03;;;3.20;;
44110;SDS011;29774;52.664;5.074;2023-12-14T01:55:46;5.15;;;3.58;;
44110;SDS011;29774;52.664;5.074;2023-12-14T01:58:12;7.00;;;3.08;;
44110;SDS011;29774;52.664;5.074;2023-12-14T02:03:29;6.88;;;2.97;;
44110;SDS011;29774;52.664;5.074;2023-12-14T02:05:54;4.63;;;3.03;;
44110;SDS011;29774;52.664;5.074;2023-12-14T02:08:20;7.35;;;3.05;;
44110;SDS011;29774;52.664;5.074;2023-12-14T02:10:46;6.15;;;3.35;;
44110;SDS011;29774;52.664;5.074;2023-12-14T02:13:13;4.35;;;2.90;;
44110;SDS011;29774;52.664;5.074;2023-12-14T02:15:38;6.50;;;3.17;;
44110;SDS011;29774;52.664;5.074;2023-12-14T02:18:04;5.55;;;2.83;;
44110;SDS011;29774;52.664;5.074;2023-12-14T02:20:30;3.20;;;2.58;;
44110;SDS011;29774;52.664;5.074;2023-12-14T02:22:55;6.22;;;3.13;;
44110;SDS011;29774;52.664;5.074;2023-12-14T02:25:22;6.22;;;3.13;;
44110;SDS011;29774;52.664;5.074;2023-12-14T02:27:49;4.45;;;3.05;;
44110;SDS011;29774;52.664;5.074;2023-12-14T02:30:16;5.43;;;3.25;;
44110;SDS011;29774;52.664;5.074;2023-12-14T02:32:42;4.63;;;3.20;;
44110;SDS011;29774;52.664;5.074;2023-12-14T02:35:08;5.38;;;2.60;;
44110;SDS011;29774;52.664;5.074;2023-12-14T02:37:34;3.88;;;2.58;;
44110;SDS011;29774;52.664;5.074;2023-12-14T02:40:05;4.82;;;2.80;;
44110;SDS011;29774;52.664;5.074;2023-12-14T02:42:32;5.15;;;3.08;;
44110;SDS011;29774;52.664;5.074;2023-12-14T02:44:57;3.22;;;2.90;;
44110;SDS011;29774;52.664;5.074;2023-12-14T02:47:23;4.60;;;2.83;;
44110;SDS011;29774;52.664;5.074;2023-12-14T02:49:49;6.22;;;2.50;;
44110;SDS011;29774;52.664;5.074;2023-12-14T02:52:14;4.68;;;2.60;;
44110;SDS011;29774;52.664;5.074;2023-12-14T02:54:40;5.07;;;2.40;;
44110;SDS011;29774;52.664;5.074;2023-12-14T02:57:06;5.80;;;2.20;;
44110;SDS011;29774;52.664;5.074;2023-12-14T02:59:31;5.25;;;2.33;;
44110;SDS011;29774;52.664;5.074;2023-12-14T03:01:57;3.20;;;2.30;;
44110;SDS011;29774;52.664;5.074;2023-12-14T03:04:23;3.28;;;2.03;;
44110;SDS011;29774;52.664;5.074;2023-12-14T03:06:48;5.50;;;2.78;;
44110;SDS011;29774;52.664;5.074;2023-12-14T03:09:14;4.57;;;2.78;;
44110;SDS011;29774;52.664;5.074;2023-12-14T03:11:40;5.28;;;2.75;;
44110;SDS011;29774;52.664;5.074;2023-12-14T03:14:05;4.70;;;2.45;;
44110;SDS011;29774;52.664;5.074;2023-12-14T03:16:31;3.72;;;2.22;;
44110;SDS011;29774;52.664;5.074;2023-12-14T03:18:56;3.55;;;2.30;;
44110;SDS011;29774;52.664;5.074;2023-12-14T03:21:22;3.13;;;2.70;;
44110;SDS011;29774;52.664;5.074;2023-12-14T03:23:48;4.63;;;3.08;;
44110;SDS011;29774;52.664;5.074;2023-12-14T03:26:14;4.00;;;2.30;;
44110;SDS011;29774;52.664;5.074;2023-12-14T03:28:40;5.35;;;2.97;;
44110;SDS011;29774;52.664;5.074;2023-12-14T03:31:06;4.30;;;2.60;;
44110;SDS011;29774;52.664;5.074;2023-12-14T03:33:31;3.63;;;2.50;;
44110;SDS011;29774;52.664;5.074;2023-12-14T03:35:57;3.03;;;2.70;;
44110;SDS011;29774;52.664;5.074;2023-12-14T03:38:23;2.72;;;2.25;;
44110;SDS011;29774;52.664;5.074;2023-12-14T03:40:48;3.78;;;2.58;;
44110;SDS011;29774;52.664;5.074;2023-12-14T03:43:14;3.08;;;2.78;;
44110;SDS011;29774;52.664;5.074;2023-12-14T03:45:39;3.83;;;2.90;;
44110;SDS011;29774;52.664;5.074;2023-12-14T03:48:05;4.78;;;2.90;;
44110;SDS011;29774;52.664;5.074;2023-12-14T03:50:31;3.05;;;2.53;;
44110;SDS011;29774;52.664;5.074;2023-12-14T03:52:57;4.68;;;2.95;;
44110;SDS011;29774;52.664;5.074;2023-12-14T03:55:23;5.10;;;2.83;;
44110;SDS011;29774;52.664;5.074;2023-12-14T03:57:49;3.08;;;2.70;;
44110;SDS011;29774;52.664;5.074;2023-12-14T04:00:15;4.82;;;3.15;;
44110;SDS011;29774;52.664;5.074;2023-12-14T04:02:41;3.80;;;2.83;;
44110;SDS011;29774;52.664;5.074;2023-12-14T04:05:07;3.50;;;2.33;;
44110;SDS011;29774;52.664;5.074;2023-12-14T04:07:35;3.38;;;2.00;;
44110;SDS011;29774;52.664;5.074;2023-12-14T04:10:08;2.90;;;2.60;;
44110;SDS011;29774;52.664;5.074;2023-12-14T04:12:35;3.33;;;2.72;;
44110;SDS011;29774;52.664;5.074;2023-12-14T04:15:01;3.78;;;2.90;;
44110;SDS011;29774;52.664;5.074;2023-12-14T04:17:27;4.75;;;2.90;;
44110;SDS011;29774;52.664;5.074;2023-12-14T04:19:53;4.53;;;2.35;;
44110;SDS011;29774;52.664;5.074;2023-12-14T04:22:19;4.10;;;3.30;;
44110;SDS011;29774;52.664;5.074;2023-12-14T04:24:44;3.83;;;2.92;;
44110;SDS011;29774;52.664;5.074;2023-12-14T04:27:10;2.70;;;2.50;;
44110;SDS011;29774;52.664;5.074;2023-12-14T04:29:36;5.07;;;3.53;;
44110;SDS011;29774;52.664;5.074;2023-12-14T04:32:01;6.28;;;3.03;;
44110;SDS011;29774;52.664;5.074;2023-12-14T04:34:27;3.53;;;3.00;;
44110;SDS011;29774;52.664;5.074;2023-12-14T04:36:52;3.92;;;3.22;;
44110;SDS011;29774;52.664;5.074;2023-12-14T04:39:22;5.03;;;3.08;;
44110;SDS011;29774;52.664;5.074;2023-12-14T04:41:49;3.08;;;2.80;;
44110;SDS011;29774;52.664;5.074;2023-12-14T04:44:15;3.33;;;2.97;;
44110;SDS011;29774;52.664;5.074;2023-12-14T04:46:41;5.70;;;3.22;;
44110;SDS011;29774;52.664;5.074;2023-12-14T04:49:07;3.88;;;3.55;;
44110;SDS011;29774;52.664;5.074;2023-12-14T04:51:33;4.32;;;3.08;;
44110;SDS011;29774;52.664;5.074;2023-12-14T04:53:58;4.65;;;3.67;;
44110;SDS011;29774;52.664;5.074;2023-12-14T04:56:24;5.65;;;3.13;;
44110;SDS011;29774;52.664;5.074;2023-12-14T04:58:50;4.63;;;3.40;;
44110;SDS011;29774;52.664;5.074;2023-12-14T05:01:15;4.03;;;3.63;;
44110;SDS011;29774;52.664;5.074;2023-12-14T05:03:41;5.07;;;3.90;;
44110;SDS011;29774;52.664;5.074;2023-12-14T05:06:07;5.47;;;3.75;;
44110;SDS011;29774;52.664;5.074;2023-12-14T05:08:32;5.03;;;3.70;;
44110;SDS011;29774;52.664;5.074;2023-12-14T05:10:58;5.97;;;3.85;;
44110;SDS011;29774;52.664;5.074;2023-12-14T05:13:24;5.30;;;3.70;;
44110;SDS011;29774;52.664;5.074;2023-12-14T05:15:50;4.25;;;3.63;;
44110;SDS011;29774;52.664;5.074;2023-12-14T05:18:16;5.13;;;3.58;;
44110;SDS011;29774;52.664;5.074;2023-12-14T05:20:43;6.15;;;3.80;;
44110;SDS011;29774;52.664;5.074;2023-12-14T05:23:10;6.13;;;3.53;;
44110;SDS011;29774;52.664;5.074;2023-12-14T05:25:36;4.45;;;3.75;;
44110;SDS011;29774;52.664;5.074;2023-12-14T05:28:02;4.85;;;3.42;;
44110;SDS011;29774;52.664;5.074;2023-12-14T05:30:28;5.82;;;3.65;;
44110;SDS011;29774;52.664;5.074;2023-12-14T05:32:54;5.80;;;4.10;;
44110;SDS011;29774;52.664;5.074;2023-12-14T05:35:20;7.80;;;4.45;;
44110;SDS011;29774;52.664;5.074;2023-12-14T05:37:45;6.60;;;3.85;;
44110;SDS011;29774;52.664;5.074;2023-12-14T05:40:11;4.53;;;3.60;;
44110;SDS011;29774;52.664;5.074;2023-12-14T05:42:37;4.45;;;3.70;;
44110;SDS011;29774;52.664;5.074;2023-12-14T05:45:03;4.40;;;3.75;;
44110;SDS011;29774;52.664;5.074;2023-12-14T05:47:29;5.40;;;3.90;;
44110;SDS011;29774;52.664;5.074;2023-12-14T05:49:59;4.82;;;3.92;;
44110;SDS011;29774;52.664;5.074;2023-12-14T05:52:25;5.78;;;3.70;;
44110;SDS011;29774;52.664;5.074;2023-12-14T05:54:51;4.40;;;4.00;;
44110;SDS011;29774;52.664;5.074;2023-12-14T05:57:17;4.68;;;3.97;;
44110;SDS011;29774;52.664;5.074;2023-12-14T05:59:42;5.82;;;3.55;;
44110;SDS011;29774;52.664;5.074;2023-12-14T06:02:08;4.95;;;3.58;;
44110;SDS011;29774;52.664;5.074;2023-12-14T06:04:34;5.25;;;3.95;;
44110;SDS011;29774;52.664;5.074;2023-12-14T06:06:59;5.43;;;3.70;;
44110;SDS011;29774;52.664;5.074;2023-12-14T06:09:25;7.22;;;4.32;;
44110;SDS011;29774;52.664;5.074;2023-12-14T06:12:03;3.47;;;3.08;;
44110;SDS011;29774;52.664;5.074;2023-12-14T06:14:30;8.75;;;3.75;;
44110;SDS011;29774;52.664;5.074;2023-12-14T06:16:55;5.90;;;3.42;;
44110;SDS011;29774;52.664;5.074;2023-12-14T06:19:23;3.70;;;3.33;;
44110;SDS011;29774;52.664;5.074;2023-12-14T06:21:49;7.75;;;3.55;;
44110;SDS011;29774;52.664;5.074;2023-12-14T06:24:15;6.03;;;3.38;;
44110;SDS011;29774;52.664;5.074;2023-12-14T06:26:44;7.63;;;3.42;;
44110;SDS011;29774;52.664;5.074;2023-12-14T06:29:10;3.70;;;3.20;;
44110;SDS011;29774;52.664;5.074;2023-12-14T06:31:37;3.67;;;3.17;;
44110;SDS011;29774;52.664;5.074;2023-12-14T06:34:03;5.32;;;3.67;;
44110;SDS011;29774;52.664;5.074;2023-12-14T06:36:32;5.03;;;3.65;;
44110;SDS011;29774;52.664;5.074;2023-12-14T06:38:59;5.57;;;3.55;;
44110;SDS011;29774;52.664;5.074;2023-12-14T06:41:26;5.50;;;3.38;;
44110;SDS011;29774;52.664;5.074;2023-12-14T06:43:52;10.32;;;3.65;;
44110;SDS011;29774;52.664;5.074;2023-12-14T06:46:19;7.35;;;3.97;;
44110;SDS011;29774;52.664;5.074;2023-12-14T06:48:45;5.55;;;3.67;;
44110;SDS011;29774;52.664;5.074;2023-12-14T06:51:11;5.75;;;4.10;;
44110;SDS011;29774;52.664;5.074;2023-12-14T06:53:38;6.03;;;4.50;;
44110;SDS011;29774;52.664;5.074;2023-12-14T06:56:05;10.50;;;4.50;;
44110;SDS011;29774;52.664;5.074;2023-12-14T06:58:34;4.93;;;3.88;;
44110;SDS011;29774;52.664;5.074;2023-12-14T07:01:00;6.22;;;4.57;;
44110;SDS011;29774;52.664;5.074;2023-12-14T07:03:26;6.38;;;3.95;;
44110;SDS011;29774;52.664;5.074;2023-12-14T07:05:51;5.75;;;4.13;;
44110;SDS011;29774;52.664;5.074;2023-12-14T07:08:17;7.80;;;3.63;;
44110;SDS011;29774;52.664;5.074;2023-12-14T07:10:42;7.57;;;3.88;;
44110;SDS011;29774;52.664;5.074;2023-12-14T07:13:08;6.38;;;4.18;;
44110;SDS011;29774;52.664;5.074;2023-12-14T07:15:33;6.43;;;3.95;;
44110;SDS011;29774;52.664;5.074;2023-12-14T07:17:59;5.38;;;3.75;;
44110;SDS011;29774;52.664;5.074;2023-12-14T07:20:25;8.52;;;4.07;;
44110;SDS011;29774;52.664;5.074;2023-12-14T07:22:50;5.90;;;4.00;;
44110;SDS011;29774;52.664;5.074;2023-12-14T07:25:16;6.55;;;4.35;;
44110;SDS011;29774;52.664;5.074;2023-12-14T07:27:41;5.75;;;4.10;;
44110;SDS011;29774;52.664;5.074;2023-12-14T07:30:08;7.57;;;4.05;;
44110;SDS011;29774;52.664;5.074;2023-12-14T07:32:34;7.85;;;3.97;;
44110;SDS011;29774;52.664;5.074;2023-12-14T07:35:00;6.95;;;3.83;;
44110;SDS011;29774;52.664;5.074;2023-12-14T07:37:26;5.60;;;4.10;;
44110;SDS011;29774;52.664;5.074;2023-12-14T07:39:51;8.60;;;4.38;;
44110;SDS011;29774;52.664;5.074;2023-12-14T07:42:17;5.28;;;3.80;;
44110;SDS011;29774;52.664;5.074;2023-12-14T07:44:45;6.10;;;3.92;;
44110;SDS011;29774;52.664;5.074;2023-12-14T07:47:11;8.02;;;3.90;;
44110;SDS011;29774;52.664;5.074;2023-12-14T07:49:37;5.88;;;3.70;;
44110;SDS011;29774;52.664;5.074;2023-12-14T07:52:02;5.97;;;3.90;;
44110;SDS011;29774;52.664;5.074;2023-12-14T07:54:28;5.88;;;3.97;;
44110;SDS011;29774;52.664;5.074;2023-12-14T07:56:54;4.82;;;3.78;;
44110;SDS011;29774;52.664;5.074;2023-12-14T07:59:20;6.30;;;3.65;;
44110;SDS011;29774;52.664;5.074;2023-12-14T08:01:46;7.53;;;4.03;;
44110;SDS011;29774;52.664;5.074;2023-12-14T08:04:12;7.05;;;3.97;;
44110;SDS011;29774;52.664;5.074;2023-12-14T08:06:37;5.70;;;3.75;;
44110;SDS011;29774;52.664;5.074;2023-12-14T08:09:07;7.68;;;4.20;;
44110;SDS011;29774;52.664;5.074;2023-12-14T08:11:33;7.00;;;4.20;;
44110;SDS011;29774;52.664;5.074;2023-12-14T08:13:59;4.68;;;3.75;;
44110;SDS011;29774;52.664;5.074;2023-12-14T08:16:24;6.68;;;4.18;;
44110;SDS011;29774;52.664;5.074;2023-12-14T08:18:50;4.75;;;3.78;;
44110;SDS011;29774;52.664;5.074;2023-12-14T08:21:16;5.60;;;3.42;;
44110;SDS011;29774;52.664;5.074;2023-12-14T08:23:43;5.32;;;3.97;;
44110;SDS011;29774;52.664;5.074;2023-12-14T08:26:08;5.75;;;4.75;;
44110;SDS011;29774;52.664;5.074;2023-12-14T08:28:36;13.15;;;8.85;;
44110;SDS011;29774;52.664;5.074;2023-12-14T08:31:02;8.52;;;6.32;;
44110;SDS011;29774;52.664;5.074;2023-12-14T08:33:29;10.98;;;5.32;;
44110;SDS011;29774;52.664;5.074;2023-12-14T08:35:55;7.55;;;5.53;;
44110;SDS011;29774;52.664;5.074;2023-12-14T08:38:21;7.07;;;4.88;;
44110;SDS011;29774;52.664;5.074;2023-12-14T08:40:47;7.32;;;4.53;;
44110;SDS011;29774;52.664;5.074;2023-12-14T08:43:12;6.63;;;4.65;;
44110;SDS011;29774;52.664;5.074;2023-12-14T08:45:38;5.45;;;4.55;;
44110;SDS011;29774;52.664;5.074;2023-12-14T08:48:04;5.97;;;4.20;;
44110;SDS011;29774;52.664;5.074;2023-12-14T08:50:30;6.47;;;4.53;;
44110;SDS011;29774;52.664;5.074;2023-12-14T08:52:55;6.78;;;4.25;;
44110;SDS011;29774;52.664;5.074;2023-12-14T08:55:23;11.00;;;6.60;;
44110;SDS011;29774;52.664;5.074;2023-12-14T08:57:49;8.88;;;5.45;;
44110;SDS011;29774;52.664;5.074;2023-12-14T09:00:15;7.38;;;5.40;;
44110;SDS011;29774;52.664;5.074;2023-12-14T09:02:42;5.35;;;3.92;;
44110;SDS011;29774;52.664;5.074;2023-12-14T09:05:10;8.10;;;4.07;;
44110;SDS011;29774;52.664;5.074;2023-12-14T09:07:40;5.90;;;4.32;;
44110;SDS011;29774;52.664;5.074;2023-12-14T09:10:06;6.25;;;4.82;;
44110;SDS011;29774;52.664;5.074;2023-12-14T09:12:32;5.45;;;4.78;;
44110;SDS011;29774;52.664;5.074;2023-12-14T09:14:58;6.13;;;4.78;;
44110;SDS011;29774;52.664;5.074;2023-12-14T09:17:24;10.23;;;4.97;;
44110;SDS011;29774;52.664;5.074;2023-12-14T09:19:50;6.50;;;4.57;;
44110;SDS011;29774;52.664;5.074;2023-12-14T09:22:15;7.03;;;4.22;;
44110;SDS011;29774;52.664;5.074;2023-12-14T09:24:42;7.63;;;4.45;;
44110;SDS011;29774;52.664;5.074;2023-12-14T09:27:08;6.32;;;4.38;;
44110;SDS011;29774;52.664;5.074;2023-12-14T09:29:33;5.90;;;4.68;;
44110;SDS011;29774;52.664;5.074;2023-12-14T09:31:59;9.88;;;5.68;;
44110;SDS011;29774;52.664;5.074;2023-12-14T09:34:25;6.75;;;4.35;;
44110;SDS011;29774;52.664;5.074;2023-12-14T09:36:50;7.03;;;4.95;;
44110;SDS011;29774;52.664;5.074;2023-12-14T09:39:16;9.18;;;4.78;;
44110;SDS011;29774;52.664;5.074;2023-12-14T09:41:44;7.88;;;4.55;;
44110;SDS011;29774;52.664;5.074;2023-12-14T09:44:11;6.88;;;4.72;;
44110;SDS011;29774;52.664;5.074;2023-12-14T09:46:37;5.80;;;4.50;;
44110;SDS011;29774;52.664;5.074;2023-12-14T09:49:03;8.65;;;5.30;;
44110;SDS011;29774;52.664;5.074;2023-12-14T09:51:29;6.05;;;3.90;;
44110;SDS011;29774;52.664;5.074;2023-12-14T09:53:55;6.65;;;4.45;;
44110;SDS011;29774;52.664;5.074;2023-12-14T09:56:26;6.53;;;4.40;;
44110;SDS011;29774;52.664;5.074;2023-12-14T09:58:52;7.50;;;4.50;;
44110;SDS011;29774;52.664;5.074;2023-12-14T10:01:25;8.18;;;4.20;;
44110;SDS011;29774;52.664;5.074;2023-12-14T10:04:10;5.22;;;4.72;;
44110;SDS011;29774;52.664;5.074;2023-12-14T10:06:40;7.50;;;4.72;;
44110;SDS011;29774;52.664;5.074;2023-12-14T10:09:07;7.47;;;4.60;;
44110;SDS011;29774;52.664;5.074;2023-12-14T10:11:44;6.40;;;4.47;;
44110;SDS011;29774;52.664;5.074;2023-12-14T10:14:19;7.18;;;4.80;;
44110;SDS011;29774;52.664;5.074;2023-12-14T10:16:52;5.80;;;4.28;;
44110;SDS011;29774;52.664;5.074;2023-12-14T10:19:18;6.93;;;3.88;;
44110;SDS011;29774;52.664;5.074;2023-12-14T10:21:48;4.97;;;3.70;;
44110;SDS011;29774;52.664;5.074;2023-12-14T10:24:14;7.07;;;4.55;;
44110;SDS011;29774;52.664;5.074;2023-12-14T10:26:41;7.85;;;3.90;;
44110;SDS011;29774;52.664;5.074;2023-12-14T10:29:09;7.22;;;4.80;;
44110;SDS011;29774;52.664;5.074;2023-12-14T10:31:35;5.40;;;4.40;;
44110;SDS011;29774;52.664;5.074;2023-12-14T10:34:05;6.18;;;4.15;;
44110;SDS011;29774;52.664;5.074;2023-12-14T10:36:30;7.32;;;4.25;;
44110;SDS011;29774;52.664;5.074;2023-12-14T10:38:58;8.82;;;4.72;;
44110;SDS011;29774;52.664;5.074;2023-12-14T10:41:24;6.22;;;4.18;;
44110;SDS011;29774;52.664;5.074;2023-12-14T10:43:53;7.20;;;4.47;;
44110;SDS011;29774;52.664;5.074;2023-12-14T10:46:20;8.30;;;5.03;;
44110;SDS011;29774;52.664;5.074;2023-12-14T10:48:47;7.07;;;4.75;;
44110;SDS011;29774;52.664;5.074;2023-12-14T10:51:14;8.02;;;4.88;;
44110;SDS011;29774;52.664;5.074;2023-12-14T10:53:42;6.20;;;4.03;;
44110;SDS011;29774;52.664;5.074;2023-12-14T10:56:12;4.90;;;4.32;;
44110;SDS011;29774;52.664;5.074;2023-12-14T10:58:55;7.35;;;4.60;;
44110;SDS011;29774;52.664;5.074;2023-12-14T11:01:23;6.97;;;4.88;;
44110;SDS011;29774;52.664;5.074;2023-12-14T11:03:49;8.57;;;5.32;;
44110;SDS011;29774;52.664;5.074;2023-12-14T11:06:27;8.02;;;4.20;;
44110;SDS011;29774;52.664;5.074;2023-12-14T11:09:01;5.82;;;3.88;;
44110;SDS011;29774;52.664;5.074;2023-12-14T11:11:41;5.50;;;3.90;;
44110;SDS011;29774;52.664;5.074;2023-12-14T11:14:10;7.57;;;4.38;;
44110;SDS011;29774;52.664;5.074;2023-12-14T11:16:37;5.75;;;4.10;;
44110;SDS011;29774;52.664;5.074;2023-12-14T11:24:21;7.18;;;3.92;;
44110;SDS011;29774;52.664;5.074;2023-12-14T11:26:50;6.88;;;4.30;;
44110;SDS011;29774;52.664;5.074;2023-12-14T11:29:17;7.18;;;4.60;;
44110;SDS011;29774;52.664;5.074;2023-12-14T11:31:44;6.22;;;4.47;;
44110;SDS011;29774;52.664;5.074;2023-12-14T11:34:10;6.88;;;4.13;;
44110;SDS011;29774;52.664;5.074;2023-12-14T11:36:36;6.00;;;3.85;;
44110;SDS011;29774;52.664;5.074;2023-12-14T11:39:06;7.78;;;4.50;;
44110;SDS011;29774;52.664;5.074;2023-12-14T11:41:33;5.57;;;4.22;;
44110;SDS011;29774;52.664;5.074;2023-12-14T11:43:59;8.77;;;3.63;;
44110;SDS011;29774;52.664;5.074;2023-12-14T11:46:25;6.40;;;4.13;;
44110;SDS011;29774;52.664;5.074;2023-12-14T11:48:50;6.25;;;4.43;;
44110;SDS011;29774;52.664;5.074;2023-12-14T11:51:16;5.95;;;4.45;;
44110;SDS011;29774;52.664;5.074;2023-12-14T11:53:46;7.47;;;3.90;;
44110;SDS011;29774;52.664;5.074;2023-12-14T11:56:13;5.78;;;4.18;;
44110;SDS011;29774;52.664;5.074;2023-12-14T11:58:43;6.25;;;4.82;;
44110;SDS011;29774;52.664;5.074;2023-12-14T12:01:16;8.95;;;4.82;;
44110;SDS011;29774;52.664;5.074;2023-12-14T12:03:44;5.30;;;4.13;;
44110;SDS011;29774;52.664;5.074;2023-12-14T12:06:27;6.30;;;4.75;;
44110;SDS011;29774;52.664;5.074;2023-12-14T12:08:53;5.43;;;4.20;;
44110;SDS011;29774;52.664;5.074;2023-12-14T12:11:19;8.77;;;5.22;;
44110;SDS011;29774;52.664;5.074;2023-12-14T12:13:50;6.68;;;4.97;;
44110;SDS011;29774;52.664;5.074;2023-12-14T12:16:17;6.75;;;4.40;;
44110;SDS011;29774;52.664;5.074;2023-12-14T12:18:42;5.82;;;3.97;;
44110;SDS011;29774;52.664;5.074;2023-12-14T12:21:08;6.22;;;3.80;;
44110;SDS011;29774;52.664;5.074;2023-12-14T12:23:34;9.30;;;4.55;;
44110;SDS011;29774;52.664;5.074;2023-12-14T12:26:00;5.78;;;4.38;;
44110;SDS011;29774;52.664;5.074;2023-12-14T12:28:25;7.88;;;4.72;;
44110;SDS011;29774;52.664;5.074;2023-12-14T12:30:51;6.28;;;4.30;;
44110;SDS011;29774;52.664;5.074;2023-12-14T12:33:17;7.88;;;4.53;;
44110;SDS011;29774;52.664;5.074;2023-12-14T12:35:43;7.05;;;4.82;;
44110;SDS011;29774;52.664;5.074;2023-12-14T12:38:08;6.75;;;4.60;;
44110;SDS011;29774;52.664;5.074;2023-12-14T12:40:34;6.55;;;4.63;;
44110;SDS011;29774;52.664;5.074;2023-12-14T12:43:00;6.70;;;5.13;;
44110;SDS011;29774;52.664;5.074;2023-12-14T12:45:27;7.03;;;4.70;;
44110;SDS011;29774;52.664;5.074;2023-12-14T12:47:53;6.90;;;5.05;;
44110;SDS011;29774;52.664;5.074;2023-12-14T12:50:18;6.93;;;4.55;;
44110;SDS011;29774;52.664;5.074;2023-12-14T12:52:45;5.90;;;4.50;;
44110;SDS011;29774;52.664;5.074;2023-12-14T12:55:13;6.32;;;4.35;;
44110;SDS011;29774;52.664;5.074;2023-12-14T12:57:39;8.98;;;5.80;;
44110;SDS011;29774;52.664;5.074;2023-12-14T13:00:06;7.38;;;5.07;;
44110;SDS011;29774;52.664;5.074;2023-12-14T13:02:36;4.47;;;3.35;;
44110;SDS011;29774;52.664;5.074;2023-12-14T13:05:04;6.20;;;4.93;;
44110;SDS011;29774;52.664;5.074;2023-12-14T13:07:30;8.52;;;4.88;;
44110;SDS011;29774;52.664;5.074;2023-12-14T13:09:57;8.38;;;5.47;;
44110;SDS011;29774;52.664;5.074;2023-12-14T13:12:22;8.48;;;4.53;;
44110;SDS011;29774;52.664;5.074;2023-12-14T13:14:48;8.93;;;5.30;;
44110;SDS011;29774;52.664;5.074;2023-12-14T13:17:14;6.80;;;5.20;;
44110;SDS011;29774;52.664;5.074;2023-12-14T13:19:42;9.13;;;4.82;;
44110;SDS011;29774;52.664;5.074;2023-12-14T13:22:09;6.00;;;4.75;;
44110;SDS011;29774;52.664;5.074;2023-12-14T13:24:36;7.45;;;5.43;;
44110;SDS011;29774;52.664;5.074;2023-12-14T13:27:02;6.85;;;4.82;;
44110;SDS011;29774;52.664;5.074;2023-12-14T13:29:28;7.45;;;4.82;;
44110;SDS011;29774;52.664;5.074;2023-12-14T13:31:57;5.80;;;4.70;;
44110;SDS011;29774;52.664;5.074;2023-12-14T13:34:24;9.98;;;5.22;;
44110;SDS011;29774;52.664;5.074;2023-12-14T13:36:50;5.53;;;4.47;;
44110;SDS011;29774;52.664;5.074;2023-12-14T13:39:15;6.05;;;4.78;;
44110;SDS011;29774;52.664;5.074;2023-12-14T13:42:15;11.30;;;5.28;;
44110;SDS011;29774;52.664;5.074;2023-12-14T13:44:41;9.02;;;5.35;;
44110;SDS011;29774;52.664;5.074;2023-12-14T13:47:06;10.02;;;6.22;;
44110;SDS011;29774;52.664;5.074;2023-12-14T13:49:32;7.38;;;5.65;;
44110;SDS011;29774;52.664;5.074;2023-12-14T13:51:58;11.63;;;6.90;;
44110;SDS011;29774;52.664;5.074;2023-12-14T13:54:24;11.23;;;6.15;;
44110;SDS011;29774;52.664;5.074;2023-12-14T13:56:50;10.52;;;6.07;;
44110;SDS011;29774;52.664;5.074;2023-12-14T13:59:15;11.27;;;5.85;;
44110;SDS011;29774;52.664;5.074;2023-12-14T14:01:41;8.43;;;5.68;;
44110;SDS011;29774;52.664;5.074;2023-12-14T14:04:06;8.27;;;5.45;;
44110;SDS011;29774;52.664;5.074;2023-12-14T14:06:32;7.45;;;5.05;;
44110;SDS011;29774;52.664;5.074;2023-12-14T14:08:57;6.43;;;5.15;;
44110;SDS011;29774;52.664;5.074;2023-12-14T14:11:23;6.75;;;5.10;;
44110;SDS011;29774;52.664;5.074;2023-12-14T14:13:49;7.32;;;5.22;;
44110;SDS011;29774;52.664;5.074;2023-12-14T14:16:14;9.48;;;4.82;;
44110;SDS011;29774;52.664;5.074;2023-12-14T14:18:40;7.18;;;4.85;;
44110;SDS011;29774;52.664;5.074;2023-12-14T14:21:06;7.43;;;4.85;;
44110;SDS011;29774;52.664;5.074;2023-12-14T14:23:33;9.35;;;5.60;;
44110;SDS011;29774;52.664;5.074;2023-12-14T14:25:59;8.15;;;5.38;;
44110;SDS011;29774;52.664;5.074;2023-12-14T14:28:25;7.13;;;5.50;;
44110;SDS011;29774;52.664;5.074;2023-12-14T14:30:50;10.50;;;6.18;;
44110;SDS011;29774;52.664;5.074;2023-12-14T14:33:16;8.05;;;6.20;;
44110;SDS011;29774;52.664;5.074;2023-12-14T14:35:45;10.23;;;5.60;;
44110;SDS011;29774;52.664;5.074;2023-12-14T14:38:14;6.93;;;5.43;;
44110;SDS011;29774;52.664;5.074;2023-12-14T14:40:40;10.55;;;6.32;;
44110;SDS011;29774;52.664;5.074;2023-12-14T14:43:07;11.27;;;6.15;;
44110;SDS011;29774;52.664;5.074;2023-12-14T14:45:33;7.72;;;5.45;;
44110;SDS011;29774;52.664;5.074;2023-12-14T14:47:58;11.23;;;5.32;;
44110;SDS011;29774;52.664;5.074;2023-12-14T14:50:24;7.28;;;4.93;;
44110;SDS011;29774;52.664;5.074;2023-12-14T14:52:50;9.00;;;4.60;;